»·PEaware :: ACA554 CYOW-KBOS

ACA554 :: CYOW-KBOS

FLIGHT INFORMATION

Flight Status: Arrived
Operator:
Air Canada
More flights by this operator :: More flights under this callsign
Pilot: Shawn G. (7208)
Aircraft: AIRBUS A320
(A320)
More flights by this aircraft type
Origin: CYOW Ottawa/Macdonald-Cartier Intl
Canada
Destination: KBOS Logan Intl
United States
More flights between these airports :: More routes between these airports
Route: KODEX KAVSU SAVAL BUGSY ENE OOSHN5
File this flight plan on PilotEdge
Remarks:
Altitude:
(Current/Filed)
35,000ft
Speed:
(Current/Filed)
444kts
Departed: 18-Feb-18 10:58 PM
Arrived: 18-Feb-18 11:57 PM
Distance/Time
Traveled:
268nm/0:58
Distance/Time
To Go:
Arrived

Flight Plot

Page will automatically refresh every two minutes.

Flight plan parsing failed; only flown route is shown


Map Options




Map Legend


Flown Route
Filed Route
Departure Airport
Arrival Airport
Navaid (VOR, NDB)
Fix

Horizontal Profiles

Position Reports

Time Latitude Longitude Heading Altitude Ground
Speed
18-Feb-18 22:45 45.322384 -75.669200 36 383ft 0kts
18-Feb-18 22:46 45.322384 -75.669200 36 383ft 0kts
18-Feb-18 22:47 45.322384 -75.669200 36 383ft 0kts
18-Feb-18 22:48 45.322384 -75.669200 36 383ft 0kts
18-Feb-18 22:49 45.322384 -75.669200 36 383ft 0kts
18-Feb-18 22:50 45.322384 -75.669200 36 383ft 0kts
18-Feb-18 22:51 45.322384 -75.669200 36 383ft 0kts
18-Feb-18 22:52 45.322384 -75.669200 36 383ft 0kts
18-Feb-18 22:53 45.322384 -75.669200 36 383ft 0kts
18-Feb-18 22:54 45.322384 -75.669200 36 383ft 0kts
18-Feb-18 22:55 45.322384 -75.669200 36 383ft 0kts
18-Feb-18 22:56 45.322383 -75.669201 36 383ft 0kts
18-Feb-18 22:57 45.321961 -75.669648 24 383ft 2kts
18-Feb-18 22:58 45.321395 -75.669590 324 383ft 2kts
18-Feb-18 22:59 45.321249 -75.669379 305 383ft 0kts
18-Feb-18 23:00 45.321249 -75.669379 305 383ft 0kts
18-Feb-18 23:01 45.321514 -75.669904 303 383ft 21kts
18-Feb-18 23:02 45.325737 -75.679215 306 383ft 20kts
18-Feb-18 23:03 45.327299 -75.683811 211 383ft 0kts
18-Feb-18 23:04 45.326823 -75.684283 216 383ft 8kts
18-Feb-18 23:05 45.319191 -75.670983 126 546ft 151kts
18-Feb-18 23:06 45.293631 -75.618816 126 4489ft 178kts
18-Feb-18 23:07 45.257834 -75.551677 134 7564ft 257kts
18-Feb-18 23:08 45.209642 -75.465583 136 10990ft 305kts
18-Feb-18 23:09 45.151639 -75.361668 136 13922ft 355kts
18-Feb-18 23:10 45.089974 -75.251458 137 17049ft 375kts
18-Feb-18 23:11 45.037286 -75.117308 120 19833ft 409kts
18-Feb-18 23:12 44.989742 -74.967530 119 22263ft 430kts
18-Feb-18 23:13 44.939773 -74.811149 119 24474ft 449kts
18-Feb-18 23:14 44.888583 -74.651864 118 26405ft 468kts
18-Feb-18 23:15 44.833832 -74.482300 118 28221ft 486kts
18-Feb-18 23:16 44.777747 -74.309756 119 29830ft 502kts
18-Feb-18 23:17 44.718652 -74.129230 119 31269ft 516kts
18-Feb-18 23:18 44.655303 -73.946460 120 32823ft 523kts
18-Feb-18 23:19 44.591411 -73.763042 120 34447ft 525kts
18-Feb-18 23:20 44.527242 -73.579998 120 35508ft 521kts
18-Feb-18 23:21 44.464171 -73.401277 120 35512ft 522kts
18-Feb-18 23:22 44.401133 -73.223794 121 35512ft 521kts
18-Feb-18 23:23 44.336490 -73.042991 120 35504ft 521kts
18-Feb-18 23:24 44.271385 -72.862087 120 35516ft 523kts
18-Feb-18 23:25 44.205921 -72.681387 120 35546ft 524kts
18-Feb-18 23:26 44.139930 -72.500427 120 35550ft 524kts
18-Feb-18 23:27 44.075053 -72.323665 120 35545ft 524kts
18-Feb-18 23:28 44.008663 -72.143956 121 35541ft 522kts
18-Feb-18 23:29 43.954497 -71.998181 121 35533ft 522kts
18-Feb-18 23:30 43.923213 -71.914335 121 35532ft 522kts
18-Feb-18 23:31 43.870517 -71.773671 121 35559ft 522kts
18-Feb-18 23:32 43.803664 -71.596230 121 35582ft 522kts
18-Feb-18 23:33 43.736235 -71.418393 121 35591ft 523kts
18-Feb-18 23:34 43.669741 -71.244121 121 35593ft 522kts
18-Feb-18 23:35 43.602094 -71.067933 121 35585ft 521kts
18-Feb-18 23:36 43.534018 -70.891723 121 35590ft 522kts
18-Feb-18 23:37 43.465513 -70.715493 121 35602ft 524kts
18-Feb-18 23:38 43.374720 -70.567693 156 35644ft 501kts
18-Feb-18 23:39 43.257958 -70.465932 156 35650ft 499kts
18-Feb-18 23:40 43.144162 -70.366353 155 33316ft 507kts
18-Feb-18 23:41 43.030309 -70.267073 156 29568ft 472kts
18-Feb-18 23:42 42.924308 -70.175143 156 25863ft 438kts
18-Feb-18 23:43 42.826758 -70.090856 155 22217ft 406kts
18-Feb-18 23:44 42.732144 -70.047129 206 18488ft 332kts
18-Feb-18 23:45 42.652315 -70.093687 230 15958ft 294kts
18-Feb-18 23:46 42.616790 -70.186616 248 14372ft 271kts
18-Feb-18 23:47 42.599287 -70.280424 267 13067ft 251kts
18-Feb-18 23:48 42.595026 -70.373498 267 11714ft 244kts
18-Feb-18 23:49 42.590776 -70.464129 268 10399ft 239kts
18-Feb-18 23:50 42.586497 -70.553787 268 9104ft 238kts
18-Feb-18 23:51 42.569340 -70.641193 256 7810ft 240kts
18-Feb-18 23:52 42.572342 -70.725020 309 6402ft 241kts
18-Feb-18 23:53 42.619871 -70.774913 7 6014ft 225kts
18-Feb-18 23:54 42.678333 -70.746553 17 6009ft 215kts
18-Feb-18 23:55 42.724270 -70.768514 274 5871ft 212kts
18-Feb-18 23:56 42.682992 -70.823037 211 4882ft 222kts
18-Feb-18 23:57 42.631401 -70.862817 210 4274ft 210kts
18-Feb-18 23:58 42.580086 -70.900811 203 4005ft 211kts
18-Feb-18 23:59 42.526019 -70.927187 200 3269ft 195kts
19-Feb-18 00:00 42.480200 -70.949354 200 2229ft 159kts
19-Feb-18 00:01 42.441257 -70.968188 200 1448ft 125kts
19-Feb-18 00:02 42.410099 -70.983264 199 819ft 117kts
19-Feb-18 00:03 42.379522 -70.997964 199 183ft 115kts
19-Feb-18 00:04 42.358858 -71.009587 229 29ft 29kts
19-Feb-18 00:05 42.358300 -71.011366 278 29ft 1kts
19-Feb-18 00:06 42.358943 -71.016676 282 29ft 17kts
19-Feb-18 00:07 42.361157 -71.022644 317 29ft 18kts
19-Feb-18 00:08 42.363197 -71.020281 93 29ft 0kts
19-Feb-18 00:09 42.362969 -71.019872 129 29ft 0kts
19-Feb-18 00:10 42.362970 -71.019872 129 29ft 0kts
19-Feb-18 00:11 42.362970 -71.019872 129 29ft 0kts

Navigation Log

Ident Type
Flight plan parsing failed, navigation log unavailable